Time;durP1;ratioP1;P1;durP2;ratioP2;P2;SDS_P1;SDS_P2;PMS_P1;PMS_P2;Temp;Humidity;BMP_temperature;BMP_pressure;BME280_temperature;BME280_humidity;BME280_pressure;Samples;Min_cycle;Max_cycle;Signal;HPM_P1;HPM_P2
2022/11/06 00:04:28;;;;;;;;;;;;;;;;;;10588561;28;19932;-67
2022/11/06 00:09:30;;;;;;;;;;;;;;;;;;10588345;28;19924;-67
2022/11/06 00:14:32;;;;;;;;;;;;;;;;;;10588149;28;19936;-67
2022/11/06 00:19:35;;;;;;;;;;;;;;;;;;10587718;28;19984;-67
2022/11/06 00:24:37;;;;;;;;;;;;;;;;;;10587765;28;19924;-67
2022/11/06 00:29:39;;;;;;;;;;;;;;;;;;10587500;28;19977;-67
2022/11/06 00:34:41;;;;;;;;;;;;;;;;;;10586853;28;19973;-67
2022/11/06 00:39:43;;;;;;;;;;;;;;;;;;10586531;28;19927;-67
2022/11/06 00:44:45;;;;;;;;;;;;;;;;;;10586351;28;19924;-67
2022/11/06 00:49:48;;;;;;;;;;;;;;;;;;10586678;28;19949;-67
2022/11/06 00:54:50;;;;;;;;;;;;;;;;;;10585911;28;19924;-67
2022/11/06 00:59:52;;;;;;;;;;;;;;;;;;10586444;28;19924;-67
2022/11/06 01:04:54;;;;;;;;;;;;;;;;;;10586140;28;19928;-67
2022/11/06 01:09:56;;;;;;;;;;;;;;;;;;10585225;28;20312;-68
2022/11/06 01:14:58;;;;;;;;;;;;;;;;;;10585747;28;19984;-68
2022/11/06 01:20:00;;;;;;;;;;;;;;;;;;10585525;28;19949;-67
2022/11/06 01:25:02;;;;;;;;;;;;;;;;;;10584690;28;19977;-67
2022/11/06 01:30:04;;;;;;;;;;;;;;;;;;10584349;28;19927;-67
2022/11/06 01:35:06;;;;;;;;;;;;;;;;;;10584085;28;20259;-67
2022/11/06 01:40:08;;;;;;;;;;;;;;;;;;10584899;28;19969;-67
2022/11/06 01:45:10;;;;;;;;;;;;;;;;;;10584520;28;19973;-67
2022/11/06 01:50:12;;;;;;;;;;;;;;;;;;10583608;28;19977;-67
2022/11/06 01:55:14;;;;;;;;;;;;;;;;;;10584166;28;19931;-67
2022/11/06 02:00:16;;;;;;;;;;;;;;;;;;10583927;28;19969;-67
2022/11/06 02:05:18;;;;;;;;;;;;;;;;;;10583778;28;19928;-67
2022/11/06 02:10:20;;;;;;;;;;;;;;;;;;10583003;28;19973;-67
2022/11/06 02:15:23;;;;;;;;;;;;;;;;;;10583472;28;19924;-67
2022/11/06 02:20:25;;;;;;;;;;;;;;;;;;10583319;28;19923;-67
2022/11/06 02:25:27;;;;;;;;;;;;;;;;;;10583176;28;19930;-67
2022/11/06 02:30:29;;;;;;;;;;;;;;;;;;10582930;28;19924;-67
2022/11/06 02:35:31;;;;;;;;;;;;;;;;;;10582062;28;19931;-67
2022/11/06 02:40:33;;;;;;;;;;;;;;;;;;10582090;28;19923;-67
2022/11/06 02:45:35;;;;;;;;;;;;;;;;;;10582009;28;20034;-67
2022/11/06 02:50:38;;;;;;;;;;;;;;;;;;10581969;28;19924;-67
2022/11/06 02:55:40;;;;;;;;;;;;;;;;;;10581810;28;19923;-67
2022/11/06 03:00:42;;;;;;;;;;;;;;;;;;10581732;28;19928;-67
2022/11/06 03:05:44;;;;;;;;;;;;;;;;;;10581653;28;19928;-67
2022/11/06 03:10:46;;;;;;;;;;;;;;;;;;10582103;28;19924;-67
2022/11/06 03:15:48;;;;;;;;;;;;;;;;;;10581440;28;20419;-68
2022/11/06 03:20:50;;;;;;;;;;;;;;;;;;10581950;28;19924;-67
2022/11/06 03:25:52;;;;;;;;;;;;;;;;;;10581283;28;20324;-67
2022/11/06 03:30:54;;;;;;;;;;;;;;;;;;10581730;28;19977;-67
2022/11/06 03:35:56;;;;;;;;;;;;;;;;;;10580867;28;19923;-67
2022/11/06 03:40:58;;;;;;;;;;;;;;;;;;10580977;28;20267;-67
2022/11/06 03:46:00;;;;;;;;;;;;;;;;;;10581348;28;19923;-67
2022/11/06 03:51:02;;;;;;;;;;;;;;;;;;10582924;28;20036;-67
2022/11/06 03:56:04;;;;;;;;;;;;;;;;;;10588311;28;20344;-67
2022/11/06 04:01:06;;;;;;;;;;;;;;;;;;10588818;28;19923;-67
2022/11/06 04:06:08;;;;;;;;;;;;;;;;;;10588596;28;19923;-67
2022/11/06 04:16:31;;;;;;;;;;;;;;;;;;10587561;28;19977;-67
2022/11/06 04:21:33;;;;;;;;;;;;;;;;;;10587933;28;19923;-67
2022/11/06 04:26:35;;;;;;;;;;;;;;;;;;10587700;28;19924;-68
2022/11/06 04:31:37;;;;;;;;;;;;;;;;;;10587121;28;19977;-67
2022/11/06 04:36:39;;;;;;;;;;;;;;;;;;10586598;28;19968;-67
2022/11/06 04:41:41;;;;;;;;;;;;;;;;;;10568492;28;20325;-68
2022/11/06 04:46:43;;;;;;;;;;;;;;;;;;10586853;28;19924;-67
2022/11/06 04:51:45;;;;;;;;;;;;;;;;;;10586769;28;19973;-68
2022/11/06 04:56:47;;;;;;;;;;;;;;;;;;10585918;28;20048;-67
2022/11/06 05:01:49;;;;;;;;;;;;;;;;;;10584235;28;19924;-67
2022/11/06 05:06:51;;;;;;;;;;;;;;;;;;10585258;28;19924;-67
2022/11/06 05:11:53;;;;;;;;;;;;;;;;;;10585958;28;19969;-68
2022/11/06 05:16:55;;;;;;;;;;;;;;;;;;10585082;28;20382;-67
2022/11/06 05:27:18;;;;;;;;;;;;;;;;;;10585205;28;19973;-67
2022/11/06 05:32:21;;;;;;;;;;;;;;;;;;10584256;28;20314;-67
2022/11/06 05:37:23;;;;;;;;;;;;;;;;;;10584938;28;19924;-67
2022/11/06 05:42:25;;;;;;;;;;;;;;;;;;10584659;28;19923;-67
2022/11/06 05:47:27;;;;;;;;;;;;;;;;;;10583790;28;19946;-67
2022/11/06 05:52:29;;;;;;;;;;;;;;;;;;10584378;28;19977;-67
2022/11/06 05:57:31;;;;;;;;;;;;;;;;;;10584170;28;19923;-67
2022/11/06 06:02:33;;;;;;;;;;;;;;;;;;10583323;28;19993;-67
2022/11/06 06:07:36;;;;;;;;;;;;;;;;;;10583041;28;20010;-67
2022/11/06 06:12:38;;;;;;;;;;;;;;;;;;10582945;28;20298;-67
2022/11/06 06:17:40;;;;;;;;;;;;;;;;;;10583134;28;19928;-68
2022/11/06 06:22:42;;;;;;;;;;;;;;;;;;10582690;28;20336;-69
2022/11/06 06:27:44;;;;;;;;;;;;;;;;;;10583028;28;19928;-67
2022/11/06 06:32:46;;;;;;;;;;;;;;;;;;10582626;28;19978;-67
2022/11/06 06:37:48;;;;;;;;;;;;;;;;;;10583043;28;19949;-67
2022/11/06 06:42:50;;;;;;;;;;;;;;;;;;10582745;28;19950;-67
2022/11/06 06:47:52;;;;;;;;;;;;;;;;;;10581934;28;19977;-67
2022/11/06 06:52:54;;;;;;;;;;;;;;;;;;10564527;28;19928;-67
2022/11/06 06:57:56;;;;;;;;;;;;;;;;;;10582373;28;19969;-67
2022/11/06 07:02:59;;;;;;;;;;;;;;;;;;10581719;28;20334;-67
2022/11/06 07:08:01;;;;;;;;;;;;;;;;;;10582183;28;19923;-67
2022/11/06 07:13:03;;;;;;;;;;;;;;;;;;10581564;28;20011;-68
2022/11/06 07:18:05;;;;;;;;;;;;;;;;;;10582043;28;19931;-67
2022/11/06 07:23:07;;;;;;;;;;;;;;;;;;10563913;28;19984;-67
2022/11/06 07:28:09;;;;;;;;;;;;;;;;;;10587020;28;19924;-68
2022/11/06 07:33:11;;;;;;;;;;;;;;;;;;10589553;28;19931;-67
2022/11/06 07:38:13;;;;;;;;;;;;;;;;;;10588953;28;19973;-66
2022/11/06 07:43:15;;;;;;;;;;;;;;;;;;10588900;28;20435;-66
2022/11/06 07:48:17;;;;;;;;;;;;;;;;;;10588606;28;19977;-66
2022/11/06 07:53:19;;;;;;;;;;;;;;;;;;10589200;28;19969;-66
2022/11/06 07:58:22;;;;;;;;;;;;;;;;;;10588963;28;19928;-66
2022/11/06 08:03:24;;;;;;;;;;;;;;;;;;10588720;28;19923;-66
2022/11/06 08:08:26;;;;;;;;;;;;;;;;;;10587817;28;19993;-66
2022/11/06 08:13:28;;;;;;;;;;;;;;;;;;10588331;28;19924;-67
2022/11/06 08:18:30;;;;;;;;;;;;;;;;;;10588314;28;19928;-66
2022/11/06 08:23:32;;;;;;;;;;;;;;;;;;10587333;28;19924;-66
2022/11/06 08:28:34;;;;;;;;;;;;;;;;;;10587628;28;19927;-66
2022/11/06 08:33:36;;;;;;;;;;;;;;;;;;10587174;28;20264;-66
2022/11/06 08:38:38;;;;;;;;;;;;;;;;;;10587139;28;19940;-67
2022/11/06 08:43:40;;;;;;;;;;;;;;;;;;10587137;28;19924;-66
2022/11/06 08:48:42;;;;;;;;;;;;;;;;;;10570016;22;19924;-68
2022/11/06 08:53:44;;;;;;;;;;;;;;;;;;10544641;28;19977;-68
2022/11/06 08:58:46;;;;;;;;;;;;;;;;;;10544379;28;19928;-68
2022/11/06 09:03:53;;;;;;;;;;;;;;;;;;10544229;28;19959;-68
2022/11/06 09:08:55;;;;;;;;;;;;;;;;;;10543899;28;19977;-68
2022/11/06 09:13:57;;;;;;;;;;;;;;;;;;10543142;28;19928;-68
2022/11/06 09:18:59;;;;;;;;;;;;;;;;;;10543530;28;19925;-68
2022/11/06 09:24:01;;;;;;;;;;;;;;;;;;10542704;28;20332;-68
2022/11/06 09:29:04;;;;;;;;;;;;;;;;;;10543117;28;19970;-69
2022/11/06 09:34:06;;;;;;;;;;;;;;;;;;10543001;28;20268;-69
2022/11/06 09:39:08;;;;;;;;;;;;;;;;;;10542806;28;19924;-69
2022/11/06 09:44:10;;;;;;;;;;;;;;;;;;10542122;28;19977;-68
2022/11/06 09:49:12;;;;;;;;;;;;;;;;;;10541217;28;19958;-68
2022/11/06 09:54:14;;;;;;;;;;;;;;;;;;10541611;28;19989;-68
2022/11/06 09:59:16;;;;;;;;;;;;;;;;;;10541989;28;19928;-68
2022/11/06 10:04:18;;;;;;;;;;;;;;;;;;10541848;28;19945;-68
2022/11/06 10:09:20;;;;;;;;;;;;;;;;;;10541599;28;19954;-68
2022/11/06 10:14:22;;;;;;;;;;;;;;;;;;10541510;28;19973;-68
2022/11/06 10:19:24;;;;;;;;;;;;;;;;;;10541335;28;19973;-68
2022/11/06 10:24:26;;;;;;;;;;;;;;;;;;10523420;28;19932;-69
2022/11/06 10:29:29;;;;;;;;;;;;;;;;;;10540864;28;19932;-68
2022/11/06 10:34:31;;;;;;;;;;;;;;;;;;10540624;28;19969;-68
2022/11/06 10:39:33;;;;;;;;;;;;;;;;;;10522801;28;19924;-69
2022/11/06 10:44:36;;;;;;;;;;;;;;;;;;10540761;28;19928;-69
2022/11/06 10:49:38;;;;;;;;;;;;;;;;;;10539900;28;19970;-69
2022/11/06 10:54:40;;;;;;;;;;;;;;;;;;10522632;28;19970;-68
2022/11/06 10:59:42;;;;;;;;;;;;;;;;;;10539750;28;19928;-68
2022/11/06 11:04:44;;;;;;;;;;;;;;;;;;10548516;28;19970;-68
2022/11/06 11:09:48;;;;;;;;;;;;;;;;;;10548686;28;20045;-68
2022/11/06 11:14:50;;;;;;;;;;;;;;;;;;10548508;28;19928;-68
2022/11/06 11:19:52;;;;;;;;;;;;;;;;;;10547721;28;20383;-68
2022/11/06 11:24:54;;;;;;;;;;;;;;;;;;10530196;28;19981;-69
2022/11/06 11:29:56;;;;;;;;;;;;;;;;;;10547871;28;19950;-68
2022/11/06 11:34:58;;;;;;;;;;;;;;;;;;10547759;28;19924;-68
2022/11/06 11:40:00;;;;;;;;;;;;;;;;;;10547563;28;19924;-68
2022/11/06 11:45:02;;;;;;;;;;;;;;;;;;10546705;28;20329;-68
2022/11/06 11:50:05;;;;;;;;;;;;;;;;;;10546428;28;19924;-69
2022/11/06 11:55:07;;;;;;;;;;;;;;;;;;10546318;28;19981;-68
2022/11/06 12:00:09;;;;;;;;;;;;;;;;;;10546743;28;19924;-68
2022/11/06 12:05:11;;;;;;;;;;;;;;;;;;10546548;28;19924;-68
2022/11/06 12:10:13;;;;;;;;;;;;;;;;;;10546262;28;19928;-68
2022/11/06 12:15:15;;;;;;;;;;;;;;;;;;10544987;28;19976;-68
2022/11/06 12:20:17;;;;;;;;;;;;;;;;;;10545943;28;19924;-68
2022/11/06 12:25:19;;;;;;;;;;;;;;;;;;10545133;28;19924;-68
2022/11/06 12:30:21;;;;;;;;;;;;;;;;;;10545468;28;19924;-68
2022/11/06 12:35:23;;;;;;;;;;;;;;;;;;10545400;28;19969;-68
2022/11/06 12:40:25;;;;;;;;;;;;;;;;;;10545224;28;19928;-68
2022/11/06 12:45:28;;;;;;;;;;;;;;;;;;10544736;28;20378;-68
2022/11/06 12:50:30;;;;;;;;;;;;;;;;;;10543904;28;19977;-68
2022/11/06 12:55:32;;;;;;;;;;;;;;;;;;10543949;28;19924;-68
2022/11/06 13:00:34;;;;;;;;;;;;;;;;;;10544353;28;19924;-69
2022/11/06 13:05:36;;;;;;;;;;;;;;;;;;10543523;28;19925;-68
2022/11/06 13:10:38;;;;;;;;;;;;;;;;;;10543769;28;19986;-69
2022/11/06 13:15:40;;;;;;;;;;;;;;;;;;10543729;28;19928;-68
2022/11/06 13:20:42;;;;;;;;;;;;;;;;;;10542883;28;20379;-69
2022/11/06 13:25:44;;;;;;;;;;;;;;;;;;10541801;28;19935;-68
2022/11/06 13:30:46;;;;;;;;;;;;;;;;;;10542430;28;20283;-68
2022/11/06 13:35:48;;;;;;;;;;;;;;;;;;10542959;28;19924;-69
2022/11/06 13:40:52;;;;;;;;;;;;;;;;;;10541973;28;20328;-68
2022/11/06 13:45:54;;;;;;;;;;;;;;;;;;10542446;28;19930;-68
2022/11/06 13:50:56;;;;;;;;;;;;;;;;;;10541829;28;20333;-68
2022/11/06 13:55:59;;;;;;;;;;;;;;;;;;10542205;28;19969;-68
2022/11/06 14:01:01;;;;;;;;;;;;;;;;;;10541343;28;20391;-69
2022/11/06 14:06:04;;;;;;;;;;;;;;;;;;10541227;28;19967;-68
2022/11/06 14:11:06;;;;;;;;;;;;;;;;;;10540958;28;19924;-68
2022/11/06 14:16:08;;;;;;;;;;;;;;;;;;10540803;28;20291;-69
2022/11/06 14:21:10;;;;;;;;;;;;;;;;;;10540586;28;19924;-69
2022/11/06 14:26:12;;;;;;;;;;;;;;;;;;10541158;28;19977;-69
2022/11/06 14:31:14;;;;;;;;;;;;;;;;;;10540877;28;19924;-69
2022/11/06 14:36:20;;;;;;;;;;;;;;;;;;10540128;28;19928;-68
2022/11/06 14:41:23;;;;;;;;;;;;;;;;;;10540115;28;20379;-67
2022/11/06 14:46:25;;;;;;;;;;;;;;;;;;10538768;28;19924;-68
2022/11/06 14:51:27;;;;;;;;;;;;;;;;;;10538973;28;20449;-68
2022/11/06 14:56:29;;;;;;;;;;;;;;;;;;10539113;28;19932;-68
2022/11/06 15:01:31;;;;;;;;;;;;;;;;;;10538778;28;19928;-68
2022/11/06 15:06:33;;;;;;;;;;;;;;;;;;10539592;28;20011;-67
2022/11/06 15:11:41;;;;;;;;;;;;;;;;;;10539221;28;19928;-67
2022/11/06 15:16:49;;;;;;;;;;;;;;;;;;10539267;28;19930;-67
2022/11/06 15:21:51;;;;;;;;;;;;;;;;;;10538446;28;19935;-66
2022/11/06 15:26:53;;;;;;;;;;;;;;;;;;10539234;28;19924;-67
2022/11/06 15:31:55;;;;;;;;;;;;;;;;;;10537593;28;19986;-66
2022/11/06 15:36:57;;;;;;;;;;;;;;;;;;10539666;28;19977;-66
2022/11/06 15:41:59;;;;;;;;;;;;;;;;;;10539499;28;19977;-66
2022/11/06 15:47:01;;;;;;;;;;;;;;;;;;10537497;28;19924;-66
2022/11/06 15:52:04;;;;;;;;;;;;;;;;;;10546254;28;19993;-66
2022/11/06 15:57:07;;;;;;;;;;;;;;;;;;10546922;28;19927;-66
2022/11/06 16:02:09;;;;;;;;;;;;;;;;;;10545811;28;19924;-66
2022/11/06 16:07:11;;;;;;;;;;;;;;;;;;10545891;28;20334;-66
2022/11/06 16:12:13;;;;;;;;;;;;;;;;;;10546198;28;19928;-66
2022/11/06 16:17:15;;;;;;;;;;;;;;;;;;10545089;28;19924;-66
2022/11/06 16:22:17;;;;;;;;;;;;;;;;;;10545213;28;20282;-66
2022/11/06 16:27:20;;;;;;;;;;;;;;;;;;10545199;28;19927;-66
2022/11/06 16:32:22;;;;;;;;;;;;;;;;;;10545121;28;20295;-66
2022/11/06 16:37:28;;;;;;;;;;;;;;;;;;10543837;28;19924;-66
2022/11/06 16:42:31;;;;;;;;;;;;;;;;;;10543814;28;20374;-66
2022/11/06 16:47:33;;;;;;;;;;;;;;;;;;10543085;28;20287;-65
2022/11/06 16:52:38;;;;;;;;;;;;;;;;;;10540200;28;19977;-66
2022/11/06 16:57:41;;;;;;;;;;;;;;;;;;10541171;28;19924;-66
2022/11/06 17:02:43;;;;;;;;;;;;;;;;;;10541535;28;19924;-66
2022/11/06 17:07:45;;;;;;;;;;;;;;;;;;10541566;28;20389;-66
2022/11/06 17:12:47;;;;;;;;;;;;;;;;;;10541823;28;19986;-65
2022/11/06 17:17:49;;;;;;;;;;;;;;;;;;10539366;28;19928;-66
2022/11/06 17:22:51;;;;;;;;;;;;;;;;;;10541180;28;19931;-66
2022/11/06 17:27:53;;;;;;;;;;;;;;;;;;10542438;28;19931;-66
2022/11/06 17:32:55;;;;;;;;;;;;;;;;;;10542158;28;19996;-66
2022/11/06 17:37:58;;;;;;;;;;;;;;;;;;10543069;28;19924;-65
2022/11/06 17:43:04;;;;;;;;;;;;;;;;;;10541994;28;20391;-66
2022/11/06 17:48:06;;;;;;;;;;;;;;;;;;10537404;28;19973;-66
2022/11/06 17:53:08;;;;;;;;;;;;;;;;;;10537705;28;19924;-66
2022/11/06 17:58:10;;;;;;;;;;;;;;;;;;10539037;28;19993;-66
2022/11/06 18:03:12;;;;;;;;;;;;;;;;;;10539613;28;19924;-66
2022/11/06 18:08:16;;;;;;;;;;;;;;;;;;10527915;28;21413;-67
2022/11/06 18:13:18;;;;;;;;;;;;;;;;;;10501259;28;20082;-67
2022/11/06 18:18:20;;;;;;;;;;;;;;;;;;10534420;28;19974;-67
2022/11/06 18:23:22;;;;;;;;;;;;;;;;;;10539693;28;19927;-66
2022/11/06 18:28:24;;;;;;;;;;;;;;;;;;10534673;28;19969;-67
2022/11/06 18:33:26;;;;;;;;;;;;;;;;;;10539139;28;19975;-66
2022/11/06 18:38:29;;;;;;;;;;;;;;;;;;10538788;28;19924;-67
2022/11/06 18:43:31;;;;;;;;;;;;;;;;;;10538336;28;19924;-67
2022/11/06 18:48:33;;;;;;;;;;;;;;;;;;10533526;28;19932;-66
2022/11/06 18:53:35;;;;;;;;;;;;;;;;;;10536134;28;19931;-66
2022/11/06 18:58:37;;;;;;;;;;;;;;;;;;10535835;28;19928;-67
2022/11/06 19:03:39;;;;;;;;;;;;;;;;;;10533569;28;19969;-67
2022/11/06 19:08:43;;;;;;;;;;;;;;;;;;10536842;28;19969;-67
2022/11/06 19:13:45;;;;;;;;;;;;;;;;;;10519208;28;19926;-67
2022/11/06 19:18:49;;;;;;;;;;;;;;;;;;10536111;28;19947;-67
2022/11/06 19:24:02;;;;;;;;;;;;;;;;;;10542358;28;19956;-67
2022/11/06 19:29:07;;;;;;;;;;;;;;;;;;10545174;28;19989;-67
2022/11/06 19:34:09;;;;;;;;;;;;;;;;;;10545030;28;19924;-67
2022/11/06 19:39:12;;;;;;;;;;;;;;;;;;10525877;28;19977;-67
2022/11/06 19:44:14;;;;;;;;;;;;;;;;;;10546153;28;20341;-67
2022/11/06 19:49:17;;;;;;;;;;;;;;;;;;10544989;28;19924;-67
2022/11/06 19:54:19;;;;;;;;;;;;;;;;;;10544268;28;19985;-67
2022/11/06 19:59:21;;;;;;;;;;;;;;;;;;10542834;28;20374;-67
2022/11/06 20:04:23;;;;;;;;;;;;;;;;;;10542512;28;19924;-67
2022/11/06 20:09:25;;;;;;;;;;;;;;;;;;10543178;28;19924;-67
2022/11/06 20:14:27;;;;;;;;;;;;;;;;;;10543493;28;19973;-67
2022/11/06 20:19:29;;;;;;;;;;;;;;;;;;10535511;28;20272;-67
2022/11/06 20:24:31;;;;;;;;;;;;;;;;;;10536141;28;19952;-67
2022/11/06 20:29:33;;;;;;;;;;;;;;;;;;10540320;28;19963;-67
2022/11/06 20:34:36;;;;;;;;;;;;;;;;;;10544406;28;19928;-67
2022/11/06 20:39:40;;;;;;;;;;;;;;;;;;10544080;28;19928;-67
2022/11/06 20:44:42;;;;;;;;;;;;;;;;;;10544778;28;19931;-67
2022/11/06 20:49:44;;;;;;;;;;;;;;;;;;10543559;28;19924;-67
2022/11/06 20:54:46;;;;;;;;;;;;;;;;;;10544716;28;19924;-67
2022/11/06 20:59:48;;;;;;;;;;;;;;;;;;10542299;28;19928;-67
2022/11/06 21:04:50;;;;;;;;;;;;;;;;;;10580787;22;19923;-66
2022/11/06 21:09:52;;;;;;;;;;;;;;;;;;10583971;28;19977;-66
2022/11/06 21:14:54;;;;;;;;;;;;;;;;;;10584256;28;19944;-66
2022/11/06 21:19:57;;;;;;;;;;;;;;;;;;10578394;28;19949;-65
2022/11/06 21:24:59;;;;;;;;;;;;;;;;;;10585724;28;19927;-66
2022/11/06 21:30:01;;;;;;;;;;;;;;;;;;10585471;28;19924;-65
2022/11/06 21:35:03;;;;;;;;;;;;;;;;;;10582294;28;20429;-65
2022/11/06 21:40:05;;;;;;;;;;;;;;;;;;10582594;28;19977;-65
2022/11/06 21:45:07;;;;;;;;;;;;;;;;;;10584025;28;19966;-65
2022/11/06 21:50:14;;;;;;;;;;;;;;;;;;10584627;28;20274;-66
2022/11/06 22:00:37;;;;;;;;;;;;;;;;;;10582771;28;20382;-66
2022/11/06 22:05:39;;;;;;;;;;;;;;;;;;10583607;28;19931;-65
2022/11/06 22:10:41;;;;;;;;;;;;;;;;;;10583875;28;19927;-65
2022/11/06 22:15:43;;;;;;;;;;;;;;;;;;10582010;28;19924;-66
2022/11/06 22:20:45;;;;;;;;;;;;;;;;;;10583591;28;19936;-65
2022/11/06 22:25:47;;;;;;;;;;;;;;;;;;10582359;28;19949;-65
2022/11/06 22:30:49;;;;;;;;;;;;;;;;;;10582520;28;19927;-66
2022/11/06 22:35:52;;;;;;;;;;;;;;;;;;10582185;28;19927;-65
2022/11/06 22:40:54;;;;;;;;;;;;;;;;;;10583147;28;19928;-65
2022/11/06 22:45:56;;;;;;;;;;;;;;;;;;10582831;28;19969;-66
2022/11/06 22:50:58;;;;;;;;;;;;;;;;;;10581931;28;19927;-66
2022/11/06 22:56:00;;;;;;;;;;;;;;;;;;10584855;28;19923;-66
2022/11/06 23:01:02;;;;;;;;;;;;;;;;;;10596004;28;19949;-66
2022/11/06 23:06:04;;;;;;;;;;;;;;;;;;10595054;28;19976;-66
2022/11/06 23:11:06;;;;;;;;;;;;;;;;;;10596491;28;19949;-66
2022/11/06 23:16:09;;;;;;;;;;;;;;;;;;10594300;28;19923;-66
2022/11/06 23:21:11;;;;;;;;;;;;;;;;;;10595383;28;19924;-66
2022/11/06 23:26:13;;;;;;;;;;;;;;;;;;10596203;28;19976;-66
2022/11/06 23:31:15;;;;;;;;;;;;;;;;;;10593612;28;20330;-66
2022/11/06 23:36:17;;;;;;;;;;;;;;;;;;10595318;28;19977;-66
2022/11/06 23:46:39;;;;;;;;;;;;;;;;;;10594977;28;19927;-66
2022/11/06 23:51:41;;;;;;;;;;;;;;;;;;10595647;28;19923;-66
2022/11/06 23:56:43;;;;;;;;;;;;;;;;;;10595644;28;19923;-66
